sensor_id;sensor_type;location;lat;lon;timestamp;P1;durP1;ratioP1;P2;durP2;ratioP2
19089;SDS011;9677;50.656;13.064;2023-03-09T00:00:03;10.63;;;9.80;;
19089;SDS011;9677;50.656;13.064;2023-03-09T00:02:37;10.67;;;9.77;;
19089;SDS011;9677;50.656;13.064;2023-03-09T00:05:09;10.40;;;9.50;;
19089;SDS011;9677;50.656;13.064;2023-03-09T00:07:39;10.90;;;10.00;;
19089;SDS011;9677;50.656;13.064;2023-03-09T00:10:09;10.73;;;9.83;;
19089;SDS011;9677;50.656;13.064;2023-03-09T00:12:38;10.50;;;9.60;;
19089;SDS011;9677;50.656;13.064;2023-03-09T00:15:06;10.70;;;9.80;;
19089;SDS011;9677;50.656;13.064;2023-03-09T00:17:36;11.50;;;10.50;;
19089;SDS011;9677;50.656;13.064;2023-03-09T00:20:05;10.87;;;9.97;;
19089;SDS011;9677;50.656;13.064;2023-03-09T00:22:45;10.80;;;9.90;;
19089;SDS011;9677;50.656;13.064;2023-03-09T00:25:15;10.80;;;9.90;;
19089;SDS011;9677;50.656;13.064;2023-03-09T00:27:46;10.90;;;10.00;;
19089;SDS011;9677;50.656;13.064;2023-03-09T00:30:16;10.50;;;9.60;;
19089;SDS011;9677;50.656;13.064;2023-03-09T00:32:45;10.77;;;9.87;;
19089;SDS011;9677;50.656;13.064;2023-03-09T00:35:18;10.83;;;9.93;;
19089;SDS011;9677;50.656;13.064;2023-03-09T00:37:47;10.93;;;10.03;;
19089;SDS011;9677;50.656;13.064;2023-03-09T00:40:15;11.10;;;10.10;;
19089;SDS011;9677;50.656;13.064;2023-03-09T00:42:44;10.57;;;9.67;;
19089;SDS011;9677;50.656;13.064;2023-03-09T00:45:13;10.90;;;10.00;;
19089;SDS011;9677;50.656;13.064;2023-03-09T00:47:42;11.10;;;10.20;;
19089;SDS011;9677;50.656;13.064;2023-03-09T00:50:10;10.57;;;9.67;;
19089;SDS011;9677;50.656;13.064;2023-03-09T00:52:40;10.40;;;9.50;;
19089;SDS011;9677;50.656;13.064;2023-03-09T00:55:09;11.43;;;10.53;;
19089;SDS011;9677;50.656;13.064;2023-03-09T00:57:38;10.70;;;9.80;;
19089;SDS011;9677;50.656;13.064;2023-03-09T01:00:07;11.20;;;10.30;;
19089;SDS011;9677;50.656;13.064;2023-03-09T01:02:39;10.80;;;9.90;;
19089;SDS011;9677;50.656;13.064;2023-03-09T01:05:08;11.03;;;10.13;;
19089;SDS011;9677;50.656;13.064;2023-03-09T01:07:37;11.80;;;10.70;;
19089;SDS011;9677;50.656;13.064;2023-03-09T01:10:09;10.90;;;10.00;;
19089;SDS011;9677;50.656;13.064;2023-03-09T01:12:39;10.93;;;10.03;;
19089;SDS011;9677;50.656;13.064;2023-03-09T01:15:07;10.93;;;10.03;;
19089;SDS011;9677;50.656;13.064;2023-03-09T01:17:38;10.50;;;9.60;;
19089;SDS011;9677;50.656;13.064;2023-03-09T01:20:10;10.90;;;10.00;;
19089;SDS011;9677;50.656;13.064;2023-03-09T01:22:41;11.33;;;10.43;;
19089;SDS011;9677;50.656;13.064;2023-03-09T01:25:09;10.80;;;9.90;;
19089;SDS011;9677;50.656;13.064;2023-03-09T01:27:38;11.23;;;10.30;;
19089;SDS011;9677;50.656;13.064;2023-03-09T01:30:07;10.80;;;9.90;;
19089;SDS011;9677;50.656;13.064;2023-03-09T01:32:38;10.50;;;9.60;;
19089;SDS011;9677;50.656;13.064;2023-03-09T01:35:06;10.43;;;9.53;;
19089;SDS011;9677;50.656;13.064;2023-03-09T01:37:35;10.70;;;9.80;;
19089;SDS011;9677;50.656;13.064;2023-03-09T01:40:06;10.60;;;9.70;;
19089;SDS011;9677;50.656;13.064;2023-03-09T01:42:39;10.83;;;9.93;;
19089;SDS011;9677;50.656;13.064;2023-03-09T01:45:11;10.50;;;9.50;;
19089;SDS011;9677;50.656;13.064;2023-03-09T01:48:35;10.73;;;9.83;;
19089;SDS011;9677;50.656;13.064;2023-03-09T01:51:05;10.50;;;9.60;;
19089;SDS011;9677;50.656;13.064;2023-03-09T01:53:33;10.83;;;9.93;;
19089;SDS011;9677;50.656;13.064;2023-03-09T01:56:04;10.80;;;9.87;;
19089;SDS011;9677;50.656;13.064;2023-03-09T01:58:33;10.60;;;9.70;;
19089;SDS011;9677;50.656;13.064;2023-03-09T02:01:02;10.40;;;9.60;;
19089;SDS011;9677;50.656;13.064;2023-03-09T02:03:31;11.10;;;10.20;;
19089;SDS011;9677;50.656;13.064;2023-03-09T02:06:09;11.30;;;10.30;;
19089;SDS011;9677;50.656;13.064;2023-03-09T02:08:45;10.80;;;9.90;;
19089;SDS011;9677;50.656;13.064;2023-03-09T02:11:23;10.63;;;9.73;;
19089;SDS011;9677;50.656;13.064;2023-03-09T02:13:52;10.70;;;9.80;;
19089;SDS011;9677;50.656;13.064;2023-03-09T02:16:21;10.70;;;9.70;;
19089;SDS011;9677;50.656;13.064;2023-03-09T02:18:49;11.23;;;10.33;;
19089;SDS011;9677;50.656;13.064;2023-03-09T02:21:22;10.90;;;10.00;;
19089;SDS011;9677;50.656;13.064;2023-03-09T02:24:05;10.80;;;9.90;;
19089;SDS011;9677;50.656;13.064;2023-03-09T02:26:43;11.10;;;10.10;;
19089;SDS011;9677;50.656;13.064;2023-03-09T02:29:18;11.00;;;10.10;;
19089;SDS011;9677;50.656;13.064;2023-03-09T02:31:47;11.40;;;10.30;;
19089;SDS011;9677;50.656;13.064;2023-03-09T02:34:16;11.40;;;10.40;;
19089;SDS011;9677;50.656;13.064;2023-03-09T02:36:47;11.23;;;10.23;;
19089;SDS011;9677;50.656;13.064;2023-03-09T02:39:18;10.70;;;9.70;;
19089;SDS011;9677;50.656;13.064;2023-03-09T02:41:53;10.70;;;9.80;;
19089;SDS011;9677;50.656;13.064;2023-03-09T02:44:27;10.60;;;9.70;;
19089;SDS011;9677;50.656;13.064;2023-03-09T02:46:58;10.73;;;9.83;;
19089;SDS011;9677;50.656;13.064;2023-03-09T02:49:27;11.07;;;10.17;;
19089;SDS011;9677;50.656;13.064;2023-03-09T02:51:56;10.57;;;9.70;;
19089;SDS011;9677;50.656;13.064;2023-03-09T02:54:25;11.07;;;10.17;;
19089;SDS011;9677;50.656;13.064;2023-03-09T02:56:53;10.90;;;10.00;;
19089;SDS011;9677;50.656;13.064;2023-03-09T02:59:22;10.90;;;10.00;;
19089;SDS011;9677;50.656;13.064;2023-03-09T03:01:51;10.80;;;9.90;;
19089;SDS011;9677;50.656;13.064;2023-03-09T03:04:20;11.80;;;10.80;;
19089;SDS011;9677;50.656;13.064;2023-03-09T03:06:51;11.10;;;10.10;;
19089;SDS011;9677;50.656;13.064;2023-03-09T03:09:19;11.60;;;10.60;;
19089;SDS011;9677;50.656;13.064;2023-03-09T03:11:48;10.60;;;9.70;;
19089;SDS011;9677;50.656;13.064;2023-03-09T03:14:16;10.60;;;9.70;;
19089;SDS011;9677;50.656;13.064;2023-03-09T03:16:45;11.60;;;10.60;;
19089;SDS011;9677;50.656;13.064;2023-03-09T03:19:15;10.53;;;9.63;;
19089;SDS011;9677;50.656;13.064;2023-03-09T03:21:44;11.00;;;10.10;;
19089;SDS011;9677;50.656;13.064;2023-03-09T03:24:14;10.97;;;10.07;;
19089;SDS011;9677;50.656;13.064;2023-03-09T03:26:44;10.67;;;9.77;;
19089;SDS011;9677;50.656;13.064;2023-03-09T03:29:17;10.67;;;9.77;;
19089;SDS011;9677;50.656;13.064;2023-03-09T03:31:46;10.50;;;9.60;;
19089;SDS011;9677;50.656;13.064;2023-03-09T03:34:16;10.60;;;9.70;;
19089;SDS011;9677;50.656;13.064;2023-03-09T03:36:46;10.90;;;10.00;;
19089;SDS011;9677;50.656;13.064;2023-03-09T03:39:14;10.80;;;9.90;;
19089;SDS011;9677;50.656;13.064;2023-03-09T03:41:44;10.70;;;9.80;;
19089;SDS011;9677;50.656;13.064;2023-03-09T03:44:16;11.13;;;10.23;;
19089;SDS011;9677;50.656;13.064;2023-03-09T03:46:44;10.97;;;10.07;;
19089;SDS011;9677;50.656;13.064;2023-03-09T03:49:13;10.60;;;9.70;;
19089;SDS011;9677;50.656;13.064;2023-03-09T03:51:43;10.50;;;9.60;;
19089;SDS011;9677;50.656;13.064;2023-03-09T03:54:11;10.50;;;9.60;;
19089;SDS011;9677;50.656;13.064;2023-03-09T03:56:40;10.40;;;9.50;;
19089;SDS011;9677;50.656;13.064;2023-03-09T03:59:12;10.60;;;9.70;;
19089;SDS011;9677;50.656;13.064;2023-03-09T04:01:41;10.67;;;9.77;;
19089;SDS011;9677;50.656;13.064;2023-03-09T04:04:10;11.70;;;10.70;;
19089;SDS011;9677;50.656;13.064;2023-03-09T04:06:45;10.23;;;9.43;;
19089;SDS011;9677;50.656;13.064;2023-03-09T04:09:17;11.27;;;10.37;;
19089;SDS011;9677;50.656;13.064;2023-03-09T04:11:45;10.80;;;9.90;;
19089;SDS011;9677;50.656;13.064;2023-03-09T04:14:14;11.20;;;10.20;;
19089;SDS011;9677;50.656;13.064;2023-03-09T04:16:42;10.73;;;9.83;;
19089;SDS011;9677;50.656;13.064;2023-03-09T04:19:11;10.60;;;9.70;;
19089;SDS011;9677;50.656;13.064;2023-03-09T04:21:40;10.60;;;9.70;;
19089;SDS011;9677;50.656;13.064;2023-03-09T04:24:12;10.37;;;9.47;;
19089;SDS011;9677;50.656;13.064;2023-03-09T04:26:41;11.37;;;10.47;;
19089;SDS011;9677;50.656;13.064;2023-03-09T04:29:15;10.87;;;9.97;;
19089;SDS011;9677;50.656;13.064;2023-03-09T04:31:44;10.60;;;9.70;;
19089;SDS011;9677;50.656;13.064;2023-03-09T04:34:12;10.90;;;10.00;;
19089;SDS011;9677;50.656;13.064;2023-03-09T04:36:42;10.83;;;9.93;;
19089;SDS011;9677;50.656;13.064;2023-03-09T04:39:12;10.63;;;9.73;;
19089;SDS011;9677;50.656;13.064;2023-03-09T04:41:41;11.03;;;10.03;;
19089;SDS011;9677;50.656;13.064;2023-03-09T04:44:11;10.83;;;9.93;;
19089;SDS011;9677;50.656;13.064;2023-03-09T04:46:41;10.70;;;9.70;;
19089;SDS011;9677;50.656;13.064;2023-03-09T04:49:12;11.20;;;10.20;;
19089;SDS011;9677;50.656;13.064;2023-03-09T04:51:41;10.50;;;9.60;;
19089;SDS011;9677;50.656;13.064;2023-03-09T04:54:10;10.87;;;9.97;;
19089;SDS011;9677;50.656;13.064;2023-03-09T04:56:40;10.43;;;9.53;;
19089;SDS011;9677;50.656;13.064;2023-03-09T04:59:15;10.53;;;9.70;;
19089;SDS011;9677;50.656;13.064;2023-03-09T05:01:44;11.23;;;10.23;;
19089;SDS011;9677;50.656;13.064;2023-03-09T05:04:18;10.70;;;9.80;;
19089;SDS011;9677;50.656;13.064;2023-03-09T05:06:52;10.63;;;9.73;;
19089;SDS011;9677;50.656;13.064;2023-03-09T05:09:23;10.30;;;9.50;;
19089;SDS011;9677;50.656;13.064;2023-03-09T05:11:52;11.00;;;10.07;;
19089;SDS011;9677;50.656;13.064;2023-03-09T05:14:22;10.70;;;9.80;;
19089;SDS011;9677;50.656;13.064;2023-03-09T05:16:51;10.30;;;9.40;;
19089;SDS011;9677;50.656;13.064;2023-03-09T05:19:22;10.30;;;9.50;;
19089;SDS011;9677;50.656;13.064;2023-03-09T05:21:54;11.13;;;10.23;;
19089;SDS011;9677;50.656;13.064;2023-03-09T05:24:24;10.73;;;9.83;;
19089;SDS011;9677;50.656;13.064;2023-03-09T05:26:54;10.70;;;9.83;;
19089;SDS011;9677;50.656;13.064;2023-03-09T05:29:26;10.30;;;9.47;;
19089;SDS011;9677;50.656;13.064;2023-03-09T05:31:54;10.97;;;9.97;;
19089;SDS011;9677;50.656;13.064;2023-03-09T05:34:23;10.67;;;9.77;;
19089;SDS011;9677;50.656;13.064;2023-03-09T05:36:52;10.10;;;9.30;;
19089;SDS011;9677;50.656;13.064;2023-03-09T05:39:25;10.47;;;9.53;;
19089;SDS011;9677;50.656;13.064;2023-03-09T05:41:53;9.97;;;9.17;;
19089;SDS011;9677;50.656;13.064;2023-03-09T05:44:28;10.30;;;9.50;;
19089;SDS011;9677;50.656;13.064;2023-03-09T05:46:57;10.43;;;9.53;;
19089;SDS011;9677;50.656;13.064;2023-03-09T05:49:26;10.30;;;9.40;;
19089;SDS011;9677;50.656;13.064;2023-03-09T05:51:56;10.17;;;9.37;;
19089;SDS011;9677;50.656;13.064;2023-03-09T05:54:26;9.90;;;9.10;;
19089;SDS011;9677;50.656;13.064;2023-03-09T05:56:58;10.03;;;9.23;;
19089;SDS011;9677;50.656;13.064;2023-03-09T05:59:27;9.97;;;9.17;;
19089;SDS011;9677;50.656;13.064;2023-03-09T06:01:55;10.00;;;9.20;;
19089;SDS011;9677;50.656;13.064;2023-03-09T06:04:27;10.07;;;9.27;;
19089;SDS011;9677;50.656;13.064;2023-03-09T06:07:00;10.03;;;9.23;;
19089;SDS011;9677;50.656;13.064;2023-03-09T06:09:36;9.70;;;8.90;;
19089;SDS011;9677;50.656;13.064;2023-03-09T06:12:10;10.27;;;9.47;;
19089;SDS011;9677;50.656;13.064;2023-03-09T06:14:40;10.00;;;9.20;;
19089;SDS011;9677;50.656;13.064;2023-03-09T06:17:10;10.00;;;9.20;;
19089;SDS011;9677;50.656;13.064;2023-03-09T06:19:41;10.40;;;9.60;;
19089;SDS011;9677;50.656;13.064;2023-03-09T06:22:10;10.30;;;9.50;;
19089;SDS011;9677;50.656;13.064;2023-03-09T06:24:41;10.07;;;9.27;;
19089;SDS011;9677;50.656;13.064;2023-03-09T06:27:13;10.20;;;9.30;;
19089;SDS011;9677;50.656;13.064;2023-03-09T06:29:41;10.33;;;9.43;;
19089;SDS011;9677;50.656;13.064;2023-03-09T06:32:10;10.60;;;9.70;;
19089;SDS011;9677;50.656;13.064;2023-03-09T06:34:39;10.03;;;9.23;;
19089;SDS011;9677;50.656;13.064;2023-03-09T06:37:11;10.30;;;9.50;;
19089;SDS011;9677;50.656;13.064;2023-03-09T06:39:41;10.50;;;9.67;;
19089;SDS011;9677;50.656;13.064;2023-03-09T06:42:11;9.70;;;8.90;;
19089;SDS011;9677;50.656;13.064;2023-03-09T06:44:44;10.33;;;9.53;;
19089;SDS011;9677;50.656;13.064;2023-03-09T06:47:13;9.90;;;9.10;;
19089;SDS011;9677;50.656;13.064;2023-03-09T06:49:45;9.67;;;8.87;;
19089;SDS011;9677;50.656;13.064;2023-03-09T06:52:16;10.00;;;9.20;;
19089;SDS011;9677;50.656;13.064;2023-03-09T06:54:46;10.27;;;9.47;;
19089;SDS011;9677;50.656;13.064;2023-03-09T06:57:18;9.50;;;8.80;;
19089;SDS011;9677;50.656;13.064;2023-03-09T06:59:47;10.03;;;9.23;;
19089;SDS011;9677;50.656;13.064;2023-03-09T07:02:15;10.07;;;9.17;;
19089;SDS011;9677;50.656;13.064;2023-03-09T07:04:43;10.00;;;9.20;;
19089;SDS011;9677;50.656;13.064;2023-03-09T07:07:12;10.00;;;9.20;;
19089;SDS011;9677;50.656;13.064;2023-03-09T07:09:41;9.80;;;9.00;;
19089;SDS011;9677;50.656;13.064;2023-03-09T07:12:11;9.73;;;8.93;;
19089;SDS011;9677;50.656;13.064;2023-03-09T07:14:39;9.90;;;9.10;;
19089;SDS011;9677;50.656;13.064;2023-03-09T07:17:09;9.70;;;8.93;;
19089;SDS011;9677;50.656;13.064;2023-03-09T07:19:40;10.13;;;9.30;;
19089;SDS011;9677;50.656;13.064;2023-03-09T07:22:09;10.30;;;9.40;;
19089;SDS011;9677;50.656;13.064;2023-03-09T07:24:38;10.40;;;9.50;;
19089;SDS011;9677;50.656;13.064;2023-03-09T07:27:06;10.43;;;9.53;;
19089;SDS011;9677;50.656;13.064;2023-03-09T07:29:36;10.60;;;9.60;;
19089;SDS011;9677;50.656;13.064;2023-03-09T07:32:07;10.83;;;9.93;;
19089;SDS011;9677;50.656;13.064;2023-03-09T07:34:35;11.00;;;10.00;;
19089;SDS011;9677;50.656;13.064;2023-03-09T07:37:04;11.20;;;10.20;;
19089;SDS011;9677;50.656;13.064;2023-03-09T07:39:32;10.73;;;9.73;;
19089;SDS011;9677;50.656;13.064;2023-03-09T07:42:01;10.50;;;9.60;;
19089;SDS011;9677;50.656;13.064;2023-03-09T07:44:46;10.23;;;9.33;;
19089;SDS011;9677;50.656;13.064;2023-03-09T07:47:14;10.20;;;9.30;;
19089;SDS011;9677;50.656;13.064;2023-03-09T07:49:44;10.60;;;9.70;;
19089;SDS011;9677;50.656;13.064;2023-03-09T07:52:12;10.70;;;9.80;;
19089;SDS011;9677;50.656;13.064;2023-03-09T07:54:41;10.87;;;9.97;;
19089;SDS011;9677;50.656;13.064;2023-03-09T07:57:09;10.97;;;10.07;;
19089;SDS011;9677;50.656;13.064;2023-03-09T07:59:37;10.70;;;9.80;;
19089;SDS011;9677;50.656;13.064;2023-03-09T08:02:09;11.10;;;10.10;;
19089;SDS011;9677;50.656;13.064;2023-03-09T08:04:38;11.27;;;10.37;;
19089;SDS011;9677;50.656;13.064;2023-03-09T08:07:06;10.80;;;9.90;;
19089;SDS011;9677;50.656;13.064;2023-03-09T08:09:34;10.70;;;9.80;;
19089;SDS011;9677;50.656;13.064;2023-03-09T08:12:03;10.70;;;9.80;;
19089;SDS011;9677;50.656;13.064;2023-03-09T08:14:32;10.73;;;9.83;;
19089;SDS011;9677;50.656;13.064;2023-03-09T08:17:00;10.53;;;9.70;;
19089;SDS011;9677;50.656;13.064;2023-03-09T08:19:31;10.30;;;9.40;;
19089;SDS011;9677;50.656;13.064;2023-03-09T08:22:00;10.00;;;9.20;;
19089;SDS011;9677;50.656;13.064;2023-03-09T08:24:28;10.43;;;9.53;;
19089;SDS011;9677;50.656;13.064;2023-03-09T08:26:56;10.83;;;9.93;;
19089;SDS011;9677;50.656;13.064;2023-03-09T08:29:25;10.30;;;9.50;;
19089;SDS011;9677;50.656;13.064;2023-03-09T08:31:54;10.23;;;9.43;;
19089;SDS011;9677;50.656;13.064;2023-03-09T08:34:23;10.53;;;9.70;;
19089;SDS011;9677;50.656;13.064;2023-03-09T08:36:52;10.50;;;9.60;;
19089;SDS011;9677;50.656;13.064;2023-03-09T08:39:24;10.80;;;9.90;;
19089;SDS011;9677;50.656;13.064;2023-03-09T08:41:52;10.60;;;9.70;;
19089;SDS011;9677;50.656;13.064;2023-03-09T08:44:20;11.03;;;10.07;;
19089;SDS011;9677;50.656;13.064;2023-03-09T08:46:49;10.67;;;9.77;;
19089;SDS011;9677;50.656;13.064;2023-03-09T08:49:17;11.00;;;10.00;;
19089;SDS011;9677;50.656;13.064;2023-03-09T08:51:45;10.97;;;9.97;;
19089;SDS011;9677;50.656;13.064;2023-03-09T08:54:17;11.57;;;10.50;;
19089;SDS011;9677;50.656;13.064;2023-03-09T08:56:45;10.73;;;9.83;;
19089;SDS011;9677;50.656;13.064;2023-03-09T08:59:13;11.30;;;10.40;;
19089;SDS011;9677;50.656;13.064;2023-03-09T09:01:42;10.50;;;9.60;;
19089;SDS011;9677;50.656;13.064;2023-03-09T09:04:10;11.03;;;10.13;;
19089;SDS011;9677;50.656;13.064;2023-03-09T09:06:38;10.30;;;9.40;;
19089;SDS011;9677;50.656;13.064;2023-03-09T09:09:07;11.33;;;10.33;;
19089;SDS011;9677;50.656;13.064;2023-03-09T09:11:37;11.33;;;10.33;;
19089;SDS011;9677;50.656;13.064;2023-03-09T09:14:07;11.17;;;10.17;;
19089;SDS011;9677;50.656;13.064;2023-03-09T09:16:35;10.60;;;9.70;;
19089;SDS011;9677;50.656;13.064;2023-03-09T09:19:03;10.77;;;9.87;;
19089;SDS011;9677;50.656;13.064;2023-03-09T09:21:32;10.97;;;10.00;;
19089;SDS011;9677;50.656;13.064;2023-03-09T09:24:00;10.47;;;9.57;;
19089;SDS011;9677;50.656;13.064;2023-03-09T09:26:29;10.70;;;9.80;;
19089;SDS011;9677;50.656;13.064;2023-03-09T09:28:58;11.23;;;10.33;;
19089;SDS011;9677;50.656;13.064;2023-03-09T09:31:27;11.03;;;10.03;;
19089;SDS011;9677;50.656;13.064;2023-03-09T09:34:00;10.47;;;9.57;;
19089;SDS011;9677;50.656;13.064;2023-03-09T09:36:28;10.90;;;10.00;;
19089;SDS011;9677;50.656;13.064;2023-03-09T09:38:57;10.90;;;10.00;;
19089;SDS011;9677;50.656;13.064;2023-03-09T09:41:26;10.37;;;9.57;;
19089;SDS011;9677;50.656;13.064;2023-03-09T09:44:09;10.90;;;10.00;;
19089;SDS011;9677;50.656;13.064;2023-03-09T09:46:41;11.10;;;10.10;;
19089;SDS011;9677;50.656;13.064;2023-03-09T09:49:12;11.13;;;10.13;;
19089;SDS011;9677;50.656;13.064;2023-03-09T09:51:59;10.53;;;9.63;;
19089;SDS011;9677;50.656;13.064;2023-03-09T09:54:38;10.73;;;9.83;;
19089;SDS011;9677;50.656;13.064;2023-03-09T09:57:15;10.37;;;9.50;;
19089;SDS011;9677;50.656;13.064;2023-03-09T09:59:53;10.37;;;9.47;;
19089;SDS011;9677;50.656;13.064;2023-03-09T10:02:39;9.93;;;9.13;;
19089;SDS011;9677;50.656;13.064;2023-03-09T10:05:23;10.97;;;9.97;;
19089;SDS011;9677;50.656;13.064;2023-03-09T10:08:00;11.60;;;10.60;;
19089;SDS011;9677;50.656;13.064;2023-03-09T10:10:44;10.40;;;9.50;;
19089;SDS011;9677;50.656;13.064;2023-03-09T10:13:14;10.43;;;9.57;;
19089;SDS011;9677;50.656;13.064;2023-03-09T10:15:49;10.73;;;9.83;;
19089;SDS011;9677;50.656;13.064;2023-03-09T10:18:35;10.30;;;9.40;;
19089;SDS011;9677;50.656;13.064;2023-03-09T10:21:06;10.50;;;9.60;;
19089;SDS011;9677;50.656;13.064;2023-03-09T10:23:43;10.60;;;9.70;;
19089;SDS011;9677;50.656;13.064;2023-03-09T10:26:17;10.90;;;10.00;;
19089;SDS011;9677;50.656;13.064;2023-03-09T10:29:00;10.83;;;9.93;;
19089;SDS011;9677;50.656;13.064;2023-03-09T10:31:36;10.70;;;9.80;;
19089;SDS011;9677;50.656;13.064;2023-03-09T10:34:11;10.50;;;9.60;;
19089;SDS011;9677;50.656;13.064;2023-03-09T10:36:46;10.60;;;9.70;;
19089;SDS011;9677;50.656;13.064;2023-03-09T10:39:25;10.63;;;9.73;;
19089;SDS011;9677;50.656;13.064;2023-03-09T10:42:03;10.80;;;9.90;;
19089;SDS011;9677;50.656;13.064;2023-03-09T10:44:46;10.37;;;9.47;;
19089;SDS011;9677;50.656;13.064;2023-03-09T10:47:35;10.90;;;10.00;;
19089;SDS011;9677;50.656;13.064;2023-03-09T10:50:24;10.60;;;9.70;;
19089;SDS011;9677;50.656;13.064;2023-03-09T10:52:56;10.53;;;9.63;;
19089;SDS011;9677;50.656;13.064;2023-03-09T10:55:34;10.47;;;9.57;;
19089;SDS011;9677;50.656;13.064;2023-03-09T10:58:14;10.20;;;9.30;;
19089;SDS011;9677;50.656;13.064;2023-03-09T11:00:55;10.63;;;9.73;;
19089;SDS011;9677;50.656;13.064;2023-03-09T11:03:31;10.93;;;10.00;;
19089;SDS011;9677;50.656;13.064;2023-03-09T11:09:01;10.10;;;9.20;;
19089;SDS011;9677;50.656;13.064;2023-03-09T11:11:42;10.80;;;9.80;;
19089;SDS011;9677;50.656;13.064;2023-03-09T11:14:23;10.80;;;9.87;;
19089;SDS011;9677;50.656;13.064;2023-03-09T11:16:56;10.47;;;9.47;;
19089;SDS011;9677;50.656;13.064;2023-03-09T11:19:28;10.93;;;9.93;;
19089;SDS011;9677;50.656;13.064;2023-03-09T11:22:00;10.53;;;9.53;;
19089;SDS011;9677;50.656;13.064;2023-03-09T11:24:34;10.40;;;9.50;;
19089;SDS011;9677;50.656;13.064;2023-03-09T11:27:07;10.57;;;9.67;;
19089;SDS011;9677;50.656;13.064;2023-03-09T11:29:47;10.57;;;9.67;;
19089;SDS011;9677;50.656;13.064;2023-03-09T11:32:21;10.43;;;9.53;;
19089;SDS011;9677;50.656;13.064;2023-03-09T11:34:51;10.53;;;9.63;;
19089;SDS011;9677;50.656;13.064;2023-03-09T11:37:21;11.37;;;10.27;;
19089;SDS011;9677;50.656;13.064;2023-03-09T11:39:56;10.83;;;9.90;;
19089;SDS011;9677;50.656;13.064;2023-03-09T11:42:29;10.97;;;9.87;;
19089;SDS011;9677;50.656;13.064;2023-03-09T11:45:04;10.13;;;9.23;;
19089;SDS011;9677;50.656;13.064;2023-03-09T11:47:37;10.30;;;9.40;;
19089;SDS011;9677;50.656;13.064;2023-03-09T11:50:13;10.10;;;9.20;;
19089;SDS011;9677;50.656;13.064;2023-03-09T11:52:46;10.13;;;9.23;;
19089;SDS011;9677;50.656;13.064;2023-03-09T11:55:22;10.40;;;9.50;;
19089;SDS011;9677;50.656;13.064;2023-03-09T11:57:58;9.87;;;9.07;;
19089;SDS011;9677;50.656;13.064;2023-03-09T12:00:29;9.73;;;8.93;;
19089;SDS011;9677;50.656;13.064;2023-03-09T12:03:01;9.83;;;9.03;;
19089;SDS011;9677;50.656;13.064;2023-03-09T12:05:41;9.97;;;9.07;;
19089;SDS011;9677;50.656;13.064;2023-03-09T12:08:14;10.00;;;9.20;;
19089;SDS011;9677;50.656;13.064;2023-03-09T12:10:46;10.07;;;9.27;;
19089;SDS011;9677;50.656;13.064;2023-03-09T12:13:19;9.50;;;8.70;;
19089;SDS011;9677;50.656;13.064;2023-03-09T12:15:54;9.73;;;8.93;;
19089;SDS011;9677;50.656;13.064;2023-03-09T12:18:27;9.60;;;8.80;;
19089;SDS011;9677;50.656;13.064;2023-03-09T12:21:02;9.93;;;9.13;;
19089;SDS011;9677;50.656;13.064;2023-03-09T12:23:47;9.80;;;9.00;;
19089;SDS011;9677;50.656;13.064;2023-03-09T12:26:20;9.63;;;8.83;;
19089;SDS011;9677;50.656;13.064;2023-03-09T12:28:58;9.53;;;8.73;;
19089;SDS011;9677;50.656;13.064;2023-03-09T12:31:43;9.60;;;8.80;;
19089;SDS011;9677;50.656;13.064;2023-03-09T12:34:26;9.73;;;8.93;;
19089;SDS011;9677;50.656;13.064;2023-03-09T12:40:41;10.00;;;9.20;;
19089;SDS011;9677;50.656;13.064;2023-03-09T12:49:32;9.57;;;8.73;;
19089;SDS011;9677;50.656;13.064;2023-03-09T12:52:30;9.70;;;8.90;;
19089;SDS011;9677;50.656;13.064;2023-03-09T12:55:24;10.00;;;9.10;;
19089;SDS011;9677;50.656;13.064;2023-03-09T13:01:08;9.60;;;8.80;;
19089;SDS011;9677;50.656;13.064;2023-03-09T13:03:41;9.80;;;9.00;;
19089;SDS011;9677;50.656;13.064;2023-03-09T13:06:22;10.00;;;9.10;;
19089;SDS011;9677;50.656;13.064;2023-03-09T13:08:55;10.00;;;9.20;;
19089;SDS011;9677;50.656;13.064;2023-03-09T13:11:35;9.60;;;8.80;;
19089;SDS011;9677;50.656;13.064;2023-03-09T13:14:11;9.40;;;8.60;;
19089;SDS011;9677;50.656;13.064;2023-03-09T13:16:49;9.60;;;8.80;;
19089;SDS011;9677;50.656;13.064;2023-03-09T13:19:39;9.70;;;8.90;;
19089;SDS011;9677;50.656;13.064;2023-03-09T13:25:13;10.00;;;9.20;;
19089;SDS011;9677;50.656;13.064;2023-03-09T13:28:05;9.97;;;9.17;;
19089;SDS011;9677;50.656;13.064;2023-03-09T13:31:00;9.77;;;8.97;;
19089;SDS011;9677;50.656;13.064;2023-03-09T13:33:33;9.97;;;9.07;;
19089;SDS011;9677;50.656;13.064;2023-03-09T13:36:06;9.50;;;8.70;;
19089;SDS011;9677;50.656;13.064;2023-03-09T13:38:43;9.73;;;8.93;;
19089;SDS011;9677;50.656;13.064;2023-03-09T13:41:16;9.70;;;8.90;;
19089;SDS011;9677;50.656;13.064;2023-03-09T13:43:50;9.70;;;8.90;;
19089;SDS011;9677;50.656;13.064;2023-03-09T13:46:25;9.90;;;9.00;;
19089;SDS011;9677;50.656;13.064;2023-03-09T13:48:57;9.40;;;8.60;;
19089;SDS011;9677;50.656;13.064;2023-03-09T13:51:41;9.60;;;8.80;;
19089;SDS011;9677;50.656;13.064;2023-03-09T13:57:05;9.43;;;8.63;;
19089;SDS011;9677;50.656;13.064;2023-03-09T13:59:43;9.90;;;9.00;;
19089;SDS011;9677;50.656;13.064;2023-03-09T14:02:19;9.50;;;8.70;;
19089;SDS011;9677;50.656;13.064;2023-03-09T14:04:50;9.93;;;9.00;;
19089;SDS011;9677;50.656;13.064;2023-03-09T14:07:50;9.80;;;8.90;;
19089;SDS011;9677;50.656;13.064;2023-03-09T14:10:22;9.80;;;9.00;;
19089;SDS011;9677;50.656;13.064;2023-03-09T14:12:54;9.40;;;8.60;;
19089;SDS011;9677;50.656;13.064;2023-03-09T14:15:27;9.50;;;8.73;;
19089;SDS011;9677;50.656;13.064;2023-03-09T14:17:56;9.47;;;8.57;;
19089;SDS011;9677;50.656;13.064;2023-03-09T14:20:32;9.77;;;8.97;;
19089;SDS011;9677;50.656;13.064;2023-03-09T14:23:15;9.30;;;8.60;;
19089;SDS011;9677;50.656;13.064;2023-03-09T14:25:44;9.60;;;8.80;;
19089;SDS011;9677;50.656;13.064;2023-03-09T14:28:23;9.67;;;8.77;;
19089;SDS011;9677;50.656;13.064;2023-03-09T14:30:53;9.70;;;8.80;;
19089;SDS011;9677;50.656;13.064;2023-03-09T14:33:23;9.97;;;9.07;;
19089;SDS011;9677;50.656;13.064;2023-03-09T14:36:04;9.90;;;9.00;;
19089;SDS011;9677;50.656;13.064;2023-03-09T14:38:48;10.00;;;9.20;;
19089;SDS011;9677;50.656;13.064;2023-03-09T14:41:21;9.57;;;8.77;;
19089;SDS011;9677;50.656;13.064;2023-03-09T14:43:51;9.90;;;9.10;;
19089;SDS011;9677;50.656;13.064;2023-03-09T14:46:21;10.03;;;8.87;;
19089;SDS011;9677;50.656;13.064;2023-03-09T14:48:52;9.40;;;8.70;;
19089;SDS011;9677;50.656;13.064;2023-03-09T14:51:23;9.57;;;8.77;;
19089;SDS011;9677;50.656;13.064;2023-03-09T14:53:57;9.77;;;8.97;;
19089;SDS011;9677;50.656;13.064;2023-03-09T14:56:29;9.70;;;8.90;;
19089;SDS011;9677;50.656;13.064;2023-03-09T14:58:58;9.63;;;8.83;;
19089;SDS011;9677;50.656;13.064;2023-03-09T15:01:39;9.57;;;8.77;;
19089;SDS011;9677;50.656;13.064;2023-03-09T15:04:26;9.57;;;8.83;;
19089;SDS011;9677;50.656;13.064;2023-03-09T15:06:56;9.40;;;8.70;;
19089;SDS011;9677;50.656;13.064;2023-03-09T15:09:25;9.70;;;8.90;;
19089;SDS011;9677;50.656;13.064;2023-03-09T15:11:53;9.90;;;9.10;;
19089;SDS011;9677;50.656;13.064;2023-03-09T15:14:27;9.67;;;8.87;;
19089;SDS011;9677;50.656;13.064;2023-03-09T15:17:03;9.73;;;8.93;;
19089;SDS011;9677;50.656;13.064;2023-03-09T15:19:33;10.17;;;9.37;;
19089;SDS011;9677;50.656;13.064;2023-03-09T15:22:02;9.90;;;9.10;;
19089;SDS011;9677;50.656;13.064;2023-03-09T15:24:30;9.67;;;8.90;;
19089;SDS011;9677;50.656;13.064;2023-03-09T15:26:59;9.67;;;8.87;;